sensor_id;sensor_type;location;lat;lon;timestamp;P1;durP1;ratioP1;P2;durP2;ratioP2
17251;SDS011;8742;51.716;8.790;2023-04-19T00:01:10;8.10;;;4.30;;
17251;SDS011;8742;51.716;8.790;2023-04-19T00:03:37;5.33;;;3.77;;
17251;SDS011;8742;51.716;8.790;2023-04-19T00:06:04;10.90;;;4.57;;
17251;SDS011;8742;51.716;8.790;2023-04-19T00:08:32;5.47;;;4.17;;
17251;SDS011;8742;51.716;8.790;2023-04-19T00:10:59;7.03;;;4.20;;
17251;SDS011;8742;51.716;8.790;2023-04-19T00:13:26;7.33;;;4.23;;
17251;SDS011;8742;51.716;8.790;2023-04-19T00:15:54;7.40;;;4.07;;
17251;SDS011;8742;51.716;8.790;2023-04-19T00:18:21;7.10;;;4.37;;
17251;SDS011;8742;51.716;8.790;2023-04-19T00:20:47;7.47;;;4.40;;
17251;SDS011;8742;51.716;8.790;2023-04-19T00:23:15;6.00;;;4.10;;
17251;SDS011;8742;51.716;8.790;2023-04-19T00:25:42;9.60;;;4.37;;
17251;SDS011;8742;51.716;8.790;2023-04-19T00:28:08;8.27;;;4.50;;
17251;SDS011;8742;51.716;8.790;2023-04-19T00:30:35;7.20;;;4.27;;
17251;SDS011;8742;51.716;8.790;2023-04-19T00:33:03;7.50;;;4.27;;
17251;SDS011;8742;51.716;8.790;2023-04-19T00:35:36;6.27;;;4.60;;
17251;SDS011;8742;51.716;8.790;2023-04-19T00:38:03;6.77;;;4.30;;
17251;SDS011;8742;51.716;8.790;2023-04-19T00:40:30;6.60;;;4.10;;
17251;SDS011;8742;51.716;8.790;2023-04-19T00:42:57;5.93;;;4.10;;
17251;SDS011;8742;51.716;8.790;2023-04-19T00:45:24;9.03;;;4.27;;
17251;SDS011;8742;51.716;8.790;2023-04-19T00:47:51;6.40;;;4.03;;
17251;SDS011;8742;51.716;8.790;2023-04-19T00:50:20;9.20;;;4.90;;
17251;SDS011;8742;51.716;8.790;2023-04-19T00:52:47;7.57;;;4.67;;
17251;SDS011;8742;51.716;8.790;2023-04-19T00:55:14;6.83;;;4.57;;
17251;SDS011;8742;51.716;8.790;2023-04-19T00:57:41;6.50;;;4.07;;
17251;SDS011;8742;51.716;8.790;2023-04-19T01:00:09;8.60;;;4.40;;
17251;SDS011;8742;51.716;8.790;2023-04-19T01:02:37;7.53;;;4.83;;
17251;SDS011;8742;51.716;8.790;2023-04-19T01:05:04;10.97;;;5.23;;
17251;SDS011;8742;51.716;8.790;2023-04-19T01:07:33;5.47;;;4.17;;
17251;SDS011;8742;51.716;8.790;2023-04-19T01:10:00;9.10;;;4.13;;
17251;SDS011;8742;51.716;8.790;2023-04-19T01:12:27;5.73;;;4.20;;
17251;SDS011;8742;51.716;8.790;2023-04-19T01:14:54;6.57;;;4.40;;
17251;SDS011;8742;51.716;8.790;2023-04-19T01:17:21;5.77;;;4.03;;
17251;SDS011;8742;51.716;8.790;2023-04-19T01:19:48;6.10;;;4.20;;
17251;SDS011;8742;51.716;8.790;2023-04-19T01:22:18;7.17;;;4.33;;
17251;SDS011;8742;51.716;8.790;2023-04-19T01:24:46;6.50;;;4.03;;
17251;SDS011;8742;51.716;8.790;2023-04-19T01:27:13;5.27;;;3.97;;
17251;SDS011;8742;51.716;8.790;2023-04-19T01:29:41;6.87;;;4.00;;
17251;SDS011;8742;51.716;8.790;2023-04-19T01:32:08;5.87;;;4.37;;
17251;SDS011;8742;51.716;8.790;2023-04-19T01:34:37;7.80;;;4.20;;
17251;SDS011;8742;51.716;8.790;2023-04-19T01:37:03;8.37;;;4.50;;
17251;SDS011;8742;51.716;8.790;2023-04-19T01:39:32;7.33;;;4.40;;
17251;SDS011;8742;51.716;8.790;2023-04-19T01:41:59;7.13;;;4.50;;
17251;SDS011;8742;51.716;8.790;2023-04-19T01:44:27;7.90;;;4.63;;
17251;SDS011;8742;51.716;8.790;2023-04-19T01:46:54;8.27;;;4.53;;
17251;SDS011;8742;51.716;8.790;2023-04-19T01:49:21;8.00;;;4.93;;
17251;SDS011;8742;51.716;8.790;2023-04-19T01:51:47;7.70;;;4.50;;
17251;SDS011;8742;51.716;8.790;2023-04-19T01:54:14;7.30;;;4.17;;
17251;SDS011;8742;51.716;8.790;2023-04-19T01:56:42;5.33;;;4.20;;
17251;SDS011;8742;51.716;8.790;2023-04-19T01:59:09;7.20;;;4.23;;
17251;SDS011;8742;51.716;8.790;2023-04-19T02:01:36;8.63;;;4.63;;
17251;SDS011;8742;51.716;8.790;2023-04-19T02:04:03;6.33;;;4.40;;
17251;SDS011;8742;51.716;8.790;2023-04-19T02:06:30;8.70;;;4.00;;
17251;SDS011;8742;51.716;8.790;2023-04-19T02:08:56;5.50;;;4.27;;
17251;SDS011;8742;51.716;8.790;2023-04-19T02:11:23;7.43;;;4.33;;
17251;SDS011;8742;51.716;8.790;2023-04-19T02:13:52;6.83;;;4.60;;
17251;SDS011;8742;51.716;8.790;2023-04-19T02:16:18;8.57;;;4.57;;
17251;SDS011;8742;51.716;8.790;2023-04-19T02:18:45;5.97;;;4.30;;
17251;SDS011;8742;51.716;8.790;2023-04-19T02:21:13;13.60;;;5.07;;
17251;SDS011;8742;51.716;8.790;2023-04-19T02:23:40;6.93;;;4.40;;
17251;SDS011;8742;51.716;8.790;2023-04-19T02:26:06;7.27;;;4.80;;
17251;SDS011;8742;51.716;8.790;2023-04-19T02:28:33;10.03;;;4.50;;
17251;SDS011;8742;51.716;8.790;2023-04-19T02:31:04;7.60;;;5.17;;
17251;SDS011;8742;51.716;8.790;2023-04-19T02:33:31;7.83;;;4.27;;
17251;SDS011;8742;51.716;8.790;2023-04-19T02:35:58;8.07;;;4.73;;
17251;SDS011;8742;51.716;8.790;2023-04-19T02:38:24;9.70;;;5.47;;
17251;SDS011;8742;51.716;8.790;2023-04-19T02:40:51;9.10;;;4.70;;
17251;SDS011;8742;51.716;8.790;2023-04-19T02:43:18;11.30;;;5.30;;
17251;SDS011;8742;51.716;8.790;2023-04-19T02:45:45;7.70;;;4.97;;
17251;SDS011;8742;51.716;8.790;2023-04-19T02:48:13;9.77;;;4.93;;
17251;SDS011;8742;51.716;8.790;2023-04-19T02:50:40;7.10;;;4.40;;
17251;SDS011;8742;51.716;8.790;2023-04-19T02:53:07;6.80;;;4.60;;
17251;SDS011;8742;51.716;8.790;2023-04-19T02:55:34;8.63;;;4.80;;
17251;SDS011;8742;51.716;8.790;2023-04-19T02:58:01;9.30;;;5.10;;
17251;SDS011;8742;51.716;8.790;2023-04-19T03:00:27;8.43;;;4.80;;
17251;SDS011;8742;51.716;8.790;2023-04-19T03:02:55;9.10;;;5.03;;
17251;SDS011;8742;51.716;8.790;2023-04-19T03:05:23;9.70;;;5.20;;
17251;SDS011;8742;51.716;8.790;2023-04-19T03:07:50;8.20;;;4.97;;
17251;SDS011;8742;51.716;8.790;2023-04-19T03:10:17;6.27;;;4.80;;
17251;SDS011;8742;51.716;8.790;2023-04-19T03:12:43;7.40;;;4.83;;
17251;SDS011;8742;51.716;8.790;2023-04-19T03:15:10;8.23;;;4.97;;
17251;SDS011;8742;51.716;8.790;2023-04-19T03:17:37;6.70;;;4.50;;
17251;SDS011;8742;51.716;8.790;2023-04-19T03:20:04;8.37;;;4.57;;
17251;SDS011;8742;51.716;8.790;2023-04-19T03:22:37;6.37;;;4.47;;
17251;SDS011;8742;51.716;8.790;2023-04-19T03:25:04;8.13;;;5.10;;
17251;SDS011;8742;51.716;8.790;2023-04-19T03:27:32;8.23;;;5.20;;
17251;SDS011;8742;51.716;8.790;2023-04-19T03:30:00;9.80;;;4.70;;
17251;SDS011;8742;51.716;8.790;2023-04-19T03:32:27;9.10;;;4.50;;
17251;SDS011;8742;51.716;8.790;2023-04-19T03:34:54;7.23;;;4.17;;
17251;SDS011;8742;51.716;8.790;2023-04-19T03:37:21;11.40;;;4.60;;
17251;SDS011;8742;51.716;8.790;2023-04-19T03:39:49;9.60;;;4.33;;
17251;SDS011;8742;51.716;8.790;2023-04-19T03:42:16;6.90;;;4.63;;
17251;SDS011;8742;51.716;8.790;2023-04-19T03:44:43;6.47;;;4.63;;
17251;SDS011;8742;51.716;8.790;2023-04-19T03:47:09;9.33;;;4.40;;
17251;SDS011;8742;51.716;8.790;2023-04-19T03:49:36;6.47;;;4.30;;
17251;SDS011;8742;51.716;8.790;2023-04-19T03:52:03;7.80;;;4.07;;
17251;SDS011;8742;51.716;8.790;2023-04-19T03:54:30;7.93;;;4.27;;
17251;SDS011;8742;51.716;8.790;2023-04-19T03:56:58;6.37;;;4.20;;
17251;SDS011;8742;51.716;8.790;2023-04-19T03:59:25;6.20;;;4.13;;
17251;SDS011;8742;51.716;8.790;2023-04-19T04:01:52;7.27;;;4.10;;
17251;SDS011;8742;51.716;8.790;2023-04-19T04:04:19;7.07;;;3.93;;
17251;SDS011;8742;51.716;8.790;2023-04-19T04:06:46;10.40;;;4.20;;
17251;SDS011;8742;51.716;8.790;2023-04-19T04:09:12;5.50;;;3.97;;
17251;SDS011;8742;51.716;8.790;2023-04-19T04:11:39;8.27;;;4.43;;
17251;SDS011;8742;51.716;8.790;2023-04-19T04:14:07;8.47;;;3.93;;
17251;SDS011;8742;51.716;8.790;2023-04-19T04:16:34;6.43;;;3.60;;
17251;SDS011;8742;51.716;8.790;2023-04-19T04:19:01;6.83;;;3.70;;
17251;SDS011;8742;51.716;8.790;2023-04-19T04:21:28;6.67;;;3.90;;
17251;SDS011;8742;51.716;8.790;2023-04-19T04:23:55;8.70;;;3.93;;
17251;SDS011;8742;51.716;8.790;2023-04-19T04:26:23;8.37;;;4.20;;
17251;SDS011;8742;51.716;8.790;2023-04-19T04:28:54;5.47;;;3.70;;
17251;SDS011;8742;51.716;8.790;2023-04-19T04:31:22;7.37;;;4.10;;
17251;SDS011;8742;51.716;8.790;2023-04-19T04:33:49;6.60;;;3.80;;
17251;SDS011;8742;51.716;8.790;2023-04-19T04:36:18;10.97;;;3.50;;
17251;SDS011;8742;51.716;8.790;2023-04-19T04:38:46;9.97;;;4.30;;
17251;SDS011;8742;51.716;8.790;2023-04-19T04:41:12;6.00;;;3.53;;
17251;SDS011;8742;51.716;8.790;2023-04-19T04:43:40;5.97;;;3.53;;
17251;SDS011;8742;51.716;8.790;2023-04-19T04:46:07;9.17;;;3.67;;
17251;SDS011;8742;51.716;8.790;2023-04-19T04:48:35;8.90;;;3.33;;
17251;SDS011;8742;51.716;8.790;2023-04-19T04:51:02;6.03;;;3.83;;
17251;SDS011;8742;51.716;8.790;2023-04-19T04:53:29;9.70;;;3.90;;
17251;SDS011;8742;51.716;8.790;2023-04-19T04:55:56;8.93;;;3.90;;
17251;SDS011;8742;51.716;8.790;2023-04-19T04:58:23;8.10;;;3.77;;
17251;SDS011;8742;51.716;8.790;2023-04-19T05:00:49;9.10;;;3.80;;
17251;SDS011;8742;51.716;8.790;2023-04-19T05:03:16;6.83;;;3.83;;
17251;SDS011;8742;51.716;8.790;2023-04-19T05:05:45;7.60;;;3.90;;
17251;SDS011;8742;51.716;8.790;2023-04-19T05:08:12;5.83;;;3.47;;
17251;SDS011;8742;51.716;8.790;2023-04-19T05:10:38;6.00;;;3.53;;
17251;SDS011;8742;51.716;8.790;2023-04-19T05:13:05;9.73;;;3.50;;
17251;SDS011;8742;51.716;8.790;2023-04-19T05:15:32;5.73;;;3.27;;
17251;SDS011;8742;51.716;8.790;2023-04-19T05:17:59;5.67;;;3.70;;
17251;SDS011;8742;51.716;8.790;2023-04-19T05:20:26;3.67;;;3.03;;
17251;SDS011;8742;51.716;8.790;2023-04-19T05:22:57;5.00;;;2.93;;
17251;SDS011;8742;51.716;8.790;2023-04-19T05:25:24;4.80;;;3.00;;
17251;SDS011;8742;51.716;8.790;2023-04-19T05:27:51;6.53;;;3.23;;
17251;SDS011;8742;51.716;8.790;2023-04-19T05:30:18;5.10;;;3.07;;
17251;SDS011;8742;51.716;8.790;2023-04-19T05:32:45;3.53;;;2.77;;
17251;SDS011;8742;51.716;8.790;2023-04-19T05:35:12;4.57;;;2.90;;
17251;SDS011;8742;51.716;8.790;2023-04-19T05:37:39;6.57;;;3.17;;
17251;SDS011;8742;51.716;8.790;2023-04-19T05:40:08;4.43;;;2.87;;
17251;SDS011;8742;51.716;8.790;2023-04-19T05:42:35;6.10;;;2.80;;
17251;SDS011;8742;51.716;8.790;2023-04-19T05:45:03;3.57;;;2.83;;
17251;SDS011;8742;51.716;8.790;2023-04-19T05:47:31;4.50;;;2.80;;
17251;SDS011;8742;51.716;8.790;2023-04-19T05:49:58;6.27;;;3.27;;
17251;SDS011;8742;51.716;8.790;2023-04-19T05:52:24;4.03;;;2.90;;
17251;SDS011;8742;51.716;8.790;2023-04-19T05:54:51;5.70;;;3.07;;
17251;SDS011;8742;51.716;8.790;2023-04-19T05:57:19;4.97;;;2.80;;
17251;SDS011;8742;51.716;8.790;2023-04-19T05:59:46;6.67;;;3.10;;
17251;SDS011;8742;51.716;8.790;2023-04-19T06:02:13;4.67;;;3.07;;
17251;SDS011;8742;51.716;8.790;2023-04-19T06:04:40;5.67;;;3.00;;
17251;SDS011;8742;51.716;8.790;2023-04-19T06:07:07;7.03;;;2.90;;
17251;SDS011;8742;51.716;8.790;2023-04-19T06:09:33;5.33;;;2.70;;
17251;SDS011;8742;51.716;8.790;2023-04-19T06:12:00;5.50;;;3.03;;
17251;SDS011;8742;51.716;8.790;2023-04-19T06:14:28;4.83;;;2.77;;
17251;SDS011;8742;51.716;8.790;2023-04-19T06:16:55;3.43;;;2.33;;
17251;SDS011;8742;51.716;8.790;2023-04-19T06:19:22;3.47;;;2.60;;
17251;SDS011;8742;51.716;8.790;2023-04-19T06:21:49;4.50;;;2.67;;
17251;SDS011;8742;51.716;8.790;2023-04-19T06:24:16;6.87;;;2.80;;
17251;SDS011;8742;51.716;8.790;2023-04-19T06:26:42;5.43;;;2.87;;
17251;SDS011;8742;51.716;8.790;2023-04-19T06:29:11;4.00;;;2.80;;
17251;SDS011;8742;51.716;8.790;2023-04-19T06:31:39;4.17;;;2.87;;
17251;SDS011;8742;51.716;8.790;2023-04-19T06:34:06;3.60;;;2.50;;
17251;SDS011;8742;51.716;8.790;2023-04-19T06:36:35;4.67;;;2.70;;
17251;SDS011;8742;51.716;8.790;2023-04-19T06:39:02;6.23;;;3.03;;
17251;SDS011;8742;51.716;8.790;2023-04-19T06:41:29;12.10;;;2.53;;
17251;SDS011;8742;51.716;8.790;2023-04-19T06:43:56;4.03;;;2.33;;
17251;SDS011;8742;51.716;8.790;2023-04-19T06:46:23;3.60;;;2.67;;
17251;SDS011;8742;51.716;8.790;2023-04-19T06:48:52;6.77;;;2.77;;
17251;SDS011;8742;51.716;8.790;2023-04-19T06:51:19;3.73;;;2.57;;
17251;SDS011;8742;51.716;8.790;2023-04-19T06:53:48;4.00;;;2.70;;
17251;SDS011;8742;51.716;8.790;2023-04-19T06:56:15;4.60;;;3.00;;
17251;SDS011;8742;51.716;8.790;2023-04-19T06:58:41;5.60;;;3.07;;
17251;SDS011;8742;51.716;8.790;2023-04-19T07:01:08;4.10;;;2.90;;
17251;SDS011;8742;51.716;8.790;2023-04-19T07:03:37;5.87;;;2.73;;
17251;SDS011;8742;51.716;8.790;2023-04-19T07:06:05;4.37;;;2.80;;
17251;SDS011;8742;51.716;8.790;2023-04-19T07:08:32;4.93;;;2.80;;
17251;SDS011;8742;51.716;8.790;2023-04-19T07:10:59;6.30;;;2.73;;
17251;SDS011;8742;51.716;8.790;2023-04-19T07:13:26;4.50;;;2.70;;
17251;SDS011;8742;51.716;8.790;2023-04-19T07:15:53;3.97;;;2.67;;
17251;SDS011;8742;51.716;8.790;2023-04-19T07:18:20;5.53;;;2.63;;
17251;SDS011;8742;51.716;8.790;2023-04-19T07:20:47;6.03;;;2.80;;
17251;SDS011;8742;51.716;8.790;2023-04-19T07:23:15;4.73;;;2.67;;
17251;SDS011;8742;51.716;8.790;2023-04-19T07:25:43;8.17;;;2.73;;
17251;SDS011;8742;51.716;8.790;2023-04-19T07:28:10;6.87;;;2.67;;
17251;SDS011;8742;51.716;8.790;2023-04-19T07:30:50;3.83;;;2.60;;
17251;SDS011;8742;51.716;8.790;2023-04-19T07:33:17;5.57;;;2.60;;
17251;SDS011;8742;51.716;8.790;2023-04-19T07:35:44;2.53;;;2.17;;
17251;SDS011;8742;51.716;8.790;2023-04-19T07:38:11;3.40;;;2.47;;
17251;SDS011;8742;51.716;8.790;2023-04-19T07:40:39;4.43;;;3.13;;
17251;SDS011;8742;51.716;8.790;2023-04-19T07:43:06;5.00;;;2.60;;
17251;SDS011;8742;51.716;8.790;2023-04-19T07:45:32;4.37;;;2.57;;
17251;SDS011;8742;51.716;8.790;2023-04-19T07:48:00;5.97;;;2.90;;
17251;SDS011;8742;51.716;8.790;2023-04-19T07:50:27;2.37;;;2.17;;
17251;SDS011;8742;51.716;8.790;2023-04-19T07:52:54;7.73;;;2.60;;
17251;SDS011;8742;51.716;8.790;2023-04-19T07:55:21;4.00;;;2.40;;
17251;SDS011;8742;51.716;8.790;2023-04-19T07:57:49;3.73;;;2.80;;
17251;SDS011;8742;51.716;8.790;2023-04-19T08:00:16;3.73;;;2.47;;
17251;SDS011;8742;51.716;8.790;2023-04-19T08:02:46;9.47;;;2.90;;
17251;SDS011;8742;51.716;8.790;2023-04-19T08:05:14;3.87;;;2.47;;
17251;SDS011;8742;51.716;8.790;2023-04-19T08:07:42;4.63;;;2.60;;
17251;SDS011;8742;51.716;8.790;2023-04-19T08:10:09;5.93;;;2.27;;
17251;SDS011;8742;51.716;8.790;2023-04-19T08:12:36;5.13;;;2.60;;
17251;SDS011;8742;51.716;8.790;2023-04-19T08:15:06;4.00;;;2.20;;
17251;SDS011;8742;51.716;8.790;2023-04-19T08:17:33;6.83;;;2.77;;
17251;SDS011;8742;51.716;8.790;2023-04-19T08:20:00;6.63;;;2.53;;
17251;SDS011;8742;51.716;8.790;2023-04-19T08:22:27;2.63;;;2.23;;
17251;SDS011;8742;51.716;8.790;2023-04-19T08:24:54;3.03;;;2.33;;
17251;SDS011;8742;51.716;8.790;2023-04-19T08:27:21;3.00;;;2.23;;
17251;SDS011;8742;51.716;8.790;2023-04-19T08:29:51;3.00;;;2.30;;
17251;SDS011;8742;51.716;8.790;2023-04-19T08:32:19;7.57;;;2.47;;
17251;SDS011;8742;51.716;8.790;2023-04-19T08:34:46;3.17;;;2.27;;
17251;SDS011;8742;51.716;8.790;2023-04-19T08:37:13;5.03;;;2.20;;
17251;SDS011;8742;51.716;8.790;2023-04-19T08:39:40;7.27;;;2.03;;
17251;SDS011;8742;51.716;8.790;2023-04-19T08:42:08;2.93;;;2.10;;
17251;SDS011;8742;51.716;8.790;2023-04-19T08:44:35;2.37;;;2.17;;
17251;SDS011;8742;51.716;8.790;2023-04-19T08:47:03;3.47;;;2.27;;
17251;SDS011;8742;51.716;8.790;2023-04-19T08:49:33;8.10;;;2.30;;
17251;SDS011;8742;51.716;8.790;2023-04-19T08:52:00;8.37;;;2.40;;
17251;SDS011;8742;51.716;8.790;2023-04-19T08:54:28;5.70;;;2.10;;
17251;SDS011;8742;51.716;8.790;2023-04-19T08:56:55;6.10;;;2.27;;
17251;SDS011;8742;51.716;8.790;2023-04-19T08:59:24;5.37;;;2.30;;
17251;SDS011;8742;51.716;8.790;2023-04-19T09:01:51;3.37;;;2.33;;
17251;SDS011;8742;51.716;8.790;2023-04-19T09:04:18;6.03;;;2.50;;
17251;SDS011;8742;51.716;8.790;2023-04-19T09:06:46;3.53;;;2.77;;
17251;SDS011;8742;51.716;8.790;2023-04-19T09:09:14;5.00;;;2.50;;
17251;SDS011;8742;51.716;8.790;2023-04-19T09:11:42;6.60;;;2.37;;
17251;SDS011;8742;51.716;8.790;2023-04-19T09:14:09;4.57;;;2.57;;
17251;SDS011;8742;51.716;8.790;2023-04-19T09:16:36;6.23;;;2.40;;
17251;SDS011;8742;51.716;8.790;2023-04-19T09:19:04;7.60;;;2.50;;
17251;SDS011;8742;51.716;8.790;2023-04-19T09:21:33;3.67;;;2.70;;
17251;SDS011;8742;51.716;8.790;2023-04-19T09:24:01;3.20;;;2.33;;
17251;SDS011;8742;51.716;8.790;2023-04-19T09:26:28;4.07;;;2.10;;
17251;SDS011;8742;51.716;8.790;2023-04-19T09:28:55;3.00;;;2.10;;
17251;SDS011;8742;51.716;8.790;2023-04-19T09:31:23;3.83;;;2.10;;
17251;SDS011;8742;51.716;8.790;2023-04-19T09:33:50;4.77;;;2.30;;
17251;SDS011;8742;51.716;8.790;2023-04-19T09:36:27;3.03;;;2.10;;
17251;SDS011;8742;51.716;8.790;2023-04-19T09:38:55;3.23;;;2.37;;
17251;SDS011;8742;51.716;8.790;2023-04-19T09:41:24;4.40;;;2.33;;
17251;SDS011;8742;51.716;8.790;2023-04-19T09:43:51;4.23;;;2.40;;
17251;SDS011;8742;51.716;8.790;2023-04-19T09:46:31;4.37;;;2.37;;
17251;SDS011;8742;51.716;8.790;2023-04-19T09:49:16;3.53;;;2.20;;
17251;SDS011;8742;51.716;8.790;2023-04-19T09:51:48;4.87;;;2.33;;
17251;SDS011;8742;51.716;8.790;2023-04-19T09:54:17;2.47;;;2.27;;
17251;SDS011;8742;51.716;8.790;2023-04-19T09:56:46;4.60;;;2.00;;
17251;SDS011;8742;51.716;8.790;2023-04-19T09:59:13;6.87;;;2.33;;
17251;SDS011;8742;51.716;8.790;2023-04-19T10:01:42;4.20;;;2.33;;
17251;SDS011;8742;51.716;8.790;2023-04-19T10:04:10;3.77;;;2.33;;
17251;SDS011;8742;51.716;8.790;2023-04-19T10:06:38;8.37;;;2.70;;
17251;SDS011;8742;51.716;8.790;2023-04-19T10:09:06;3.13;;;2.30;;
17251;SDS011;8742;51.716;8.790;2023-04-19T10:11:35;2.40;;;1.87;;
17251;SDS011;8742;51.716;8.790;2023-04-19T10:14:06;3.97;;;2.33;;
17251;SDS011;8742;51.716;8.790;2023-04-19T10:16:37;3.43;;;2.30;;
17251;SDS011;8742;51.716;8.790;2023-04-19T10:19:04;5.50;;;2.27;;
17251;SDS011;8742;51.716;8.790;2023-04-19T10:21:33;4.57;;;2.57;;
17251;SDS011;8742;51.716;8.790;2023-04-19T10:24:01;7.77;;;2.17;;
17251;SDS011;8742;51.716;8.790;2023-04-19T10:26:28;4.37;;;2.20;;
17251;SDS011;8742;51.716;8.790;2023-04-19T10:28:56;4.23;;;2.33;;
17251;SDS011;8742;51.716;8.790;2023-04-19T10:31:25;2.53;;;1.87;;
17251;SDS011;8742;51.716;8.790;2023-04-19T10:33:52;2.80;;;2.30;;
17251;SDS011;8742;51.716;8.790;2023-04-19T10:36:19;3.50;;;2.50;;
17251;SDS011;8742;51.716;8.790;2023-04-19T10:38:47;4.60;;;2.40;;
17251;SDS011;8742;51.716;8.790;2023-04-19T10:41:16;6.50;;;2.40;;
17251;SDS011;8742;51.716;8.790;2023-04-19T10:43:46;8.03;;;2.77;;
17251;SDS011;8742;51.716;8.790;2023-04-19T10:46:14;2.83;;;2.27;;
17251;SDS011;8742;51.716;8.790;2023-04-19T10:49:02;2.97;;;2.43;;
17251;SDS011;8742;51.716;8.790;2023-04-19T10:51:32;4.87;;;2.40;;
17251;SDS011;8742;51.716;8.790;2023-04-19T10:53:59;5.10;;;2.40;;
17251;SDS011;8742;51.716;8.790;2023-04-19T10:59:29;5.23;;;2.63;;
17251;SDS011;8742;51.716;8.790;2023-04-19T11:01:57;4.53;;;2.53;;
17251;SDS011;8742;51.716;8.790;2023-04-19T11:07:25;5.80;;;2.97;;
17251;SDS011;8742;51.716;8.790;2023-04-19T11:09:52;4.10;;;2.43;;
17251;SDS011;8742;51.716;8.790;2023-04-19T11:12:19;5.10;;;2.67;;
17251;SDS011;8742;51.716;8.790;2023-04-19T11:14:47;3.57;;;2.50;;
17251;SDS011;8742;51.716;8.790;2023-04-19T11:17:16;5.10;;;2.67;;
17251;SDS011;8742;51.716;8.790;2023-04-19T11:19:52;7.50;;;2.93;;
17251;SDS011;8742;51.716;8.790;2023-04-19T11:22:25;4.40;;;2.90;;
17251;SDS011;8742;51.716;8.790;2023-04-19T11:24:56;4.97;;;2.43;;
17251;SDS011;8742;51.716;8.790;2023-04-19T11:27:29;5.37;;;2.70;;
17251;SDS011;8742;51.716;8.790;2023-04-19T11:30:00;4.47;;;2.77;;
17251;SDS011;8742;51.716;8.790;2023-04-19T11:32:28;6.83;;;2.67;;
17251;SDS011;8742;51.716;8.790;2023-04-19T11:34:55;3.77;;;3.10;;
17251;SDS011;8742;51.716;8.790;2023-04-19T11:37:22;6.67;;;2.50;;
17251;SDS011;8742;51.716;8.790;2023-04-19T11:39:50;7.30;;;2.70;;
17251;SDS011;8742;51.716;8.790;2023-04-19T11:42:17;3.27;;;2.97;;
17251;SDS011;8742;51.716;8.790;2023-04-19T11:44:48;6.83;;;2.77;;
17251;SDS011;8742;51.716;8.790;2023-04-19T11:47:16;7.30;;;2.90;;
17251;SDS011;8742;51.716;8.790;2023-04-19T11:49:44;5.03;;;2.67;;
17251;SDS011;8742;51.716;8.790;2023-04-19T11:52:20;7.57;;;2.50;;
17251;SDS011;8742;51.716;8.790;2023-04-19T11:54:50;5.57;;;2.97;;
17251;SDS011;8742;51.716;8.790;2023-04-19T11:57:25;6.23;;;2.87;;
17251;SDS011;8742;51.716;8.790;2023-04-19T12:00:06;6.07;;;3.00;;
17251;SDS011;8742;51.716;8.790;2023-04-19T12:02:36;9.73;;;2.70;;
17251;SDS011;8742;51.716;8.790;2023-04-19T12:05:08;6.47;;;2.80;;
17251;SDS011;8742;51.716;8.790;2023-04-19T12:07:36;4.70;;;3.03;;
17251;SDS011;8742;51.716;8.790;2023-04-19T12:10:23;3.50;;;2.47;;
17251;SDS011;8742;51.716;8.790;2023-04-19T12:12:50;3.70;;;2.20;;
17251;SDS011;8742;51.716;8.790;2023-04-19T12:15:17;4.80;;;2.50;;
17251;SDS011;8742;51.716;8.790;2023-04-19T12:17:56;11.90;;;2.67;;
17251;SDS011;8742;51.716;8.790;2023-04-19T12:20:32;3.77;;;2.73;;
17251;SDS011;8742;51.716;8.790;2023-04-19T12:23:01;7.60;;;2.43;;
17251;SDS011;8742;51.716;8.790;2023-04-19T12:25:30;2.50;;;2.30;;
17251;SDS011;8742;51.716;8.790;2023-04-19T12:27:58;7.00;;;2.40;;
17251;SDS011;8742;51.716;8.790;2023-04-19T12:30:26;4.17;;;2.40;;
17251;SDS011;8742;51.716;8.790;2023-04-19T12:32:53;3.23;;;2.33;;
17251;SDS011;8742;51.716;8.790;2023-04-19T12:35:20;2.73;;;2.30;;
17251;SDS011;8742;51.716;8.790;2023-04-19T12:37:47;3.20;;;2.30;;
17251;SDS011;8742;51.716;8.790;2023-04-19T12:40:14;2.50;;;2.30;;
17251;SDS011;8742;51.716;8.790;2023-04-19T12:42:43;4.83;;;2.60;;
17251;SDS011;8742;51.716;8.790;2023-04-19T12:45:10;3.00;;;2.30;;
17251;SDS011;8742;51.716;8.790;2023-04-19T12:50:31;10.48;;;2.38;;
17251;SDS011;8742;51.716;8.790;2023-04-19T12:52:58;3.23;;;2.10;;
17251;SDS011;8742;51.716;8.790;2023-04-19T12:55:25;5.05;;;2.42;;
17251;SDS011;8742;51.716;8.790;2023-04-19T12:57:54;5.45;;;2.72;;
17251;SDS011;8742;51.716;8.790;2023-04-19T13:00:22;2.75;;;2.28;;
17251;SDS011;8742;51.716;8.790;2023-04-19T13:02:50;4.53;;;2.38;;
17251;SDS011;8742;51.716;8.790;2023-04-19T13:05:16;2.92;;;2.22;;
17251;SDS011;8742;51.716;8.790;2023-04-19T13:07:43;3.35;;;2.67;;
17251;SDS011;8742;51.716;8.790;2023-04-19T13:10:10;3.33;;;2.20;;
17251;SDS011;8742;51.716;8.790;2023-04-19T13:12:37;5.22;;;2.33;;
17251;SDS011;8742;51.716;8.790;2023-04-19T13:15:07;3.65;;;1.92;;
17251;SDS011;8742;51.716;8.790;2023-04-19T13:17:35;3.45;;;2.30;;
17251;SDS011;8742;51.716;8.790;2023-04-19T13:20:02;4.20;;;2.55;;
17251;SDS011;8742;51.716;8.790;2023-04-19T13:22:30;6.25;;;2.35;;
17251;SDS011;8742;51.716;8.790;2023-04-19T13:24:57;12.55;;;2.75;;
17251;SDS011;8742;51.716;8.790;2023-04-19T13:27:24;4.68;;;2.22;;
17251;SDS011;8742;51.716;8.790;2023-04-19T13:29:52;6.32;;;2.38;;
17251;SDS011;8742;51.716;8.790;2023-04-19T13:32:21;7.55;;;2.20;;
17251;SDS011;8742;51.716;8.790;2023-04-19T13:34:48;4.25;;;2.60;;
17251;SDS011;8742;51.716;8.790;2023-04-19T13:37:15;2.95;;;2.17;;
17251;SDS011;8742;51.716;8.790;2023-04-19T13:39:42;4.18;;;2.15;;
17251;SDS011;8742;51.716;8.790;2023-04-19T13:42:09;3.42;;;2.38;;
17251;SDS011;8742;51.716;8.790;2023-04-19T13:44:35;3.47;;;1.90;;
17251;SDS011;8742;51.716;8.790;2023-04-19T13:47:02;3.50;;;2.00;;
17251;SDS011;8742;51.716;8.790;2023-04-19T13:49:35;4.68;;;1.70;;
17251;SDS011;8742;51.716;8.790;2023-04-19T13:52:02;3.00;;;1.75;;
17251;SDS011;8742;51.716;8.790;2023-04-19T13:54:29;2.88;;;2.00;;
17251;SDS011;8742;51.716;8.790;2023-04-19T13:56:56;3.03;;;1.98;;
17251;SDS011;8742;51.716;8.790;2023-04-19T13:59:23;6.80;;;2.40;;
17251;SDS011;8742;51.716;8.790;2023-04-19T14:01:50;2.45;;;2.10;;
17251;SDS011;8742;51.716;8.790;2023-04-19T14:04:19;5.47;;;1.80;;
17251;SDS011;8742;51.716;8.790;2023-04-19T14:06:48;2.43;;;2.23;;
17251;SDS011;8742;51.716;8.790;2023-04-19T14:09:15;4.27;;;1.80;;
17251;SDS011;8742;51.716;8.790;2023-04-19T14:11:42;6.05;;;2.17;;
17251;SDS011;8742;51.716;8.790;2023-04-19T14:14:08;2.77;;;1.87;;
17251;SDS011;8742;51.716;8.790;2023-04-19T14:16:35;4.03;;;2.13;;
17251;SDS011;8742;51.716;8.790;2023-04-19T14:19:05;6.23;;;2.00;;
17251;SDS011;8742;51.716;8.790;2023-04-19T14:21:58;3.67;;;2.13;;
17251;SDS011;8742;51.716;8.790;2023-04-19T14:24:40;3.58;;;2.20;;
17251;SDS011;8742;51.716;8.790;2023-04-19T14:27:23;4.88;;;2.13;;
17251;SDS011;8742;51.716;8.790;2023-04-19T14:30:04;2.30;;;1.90;;
17251;SDS011;8742;51.716;8.790;2023-04-19T14:32:31;3.05;;;2.10;;
17251;SDS011;8742;51.716;8.790;2023-04-19T14:35:10;5.88;;;2.20;;
17251;SDS011;8742;51.716;8.790;2023-04-19T14:37:38;3.83;;;2.40;;
17251;SDS011;8742;51.716;8.790;2023-04-19T14:40:05;2.30;;;2.03;;
17251;SDS011;8742;51.716;8.790;2023-04-19T14:42:34;8.35;;;2.20;;
17251;SDS011;8742;51.716;8.790;2023-04-19T14:45:01;5.57;;;2.37;;
17251;SDS011;8742;51.716;8.790;2023-04-19T14:47:28;4.00;;;2.40;;
17251;SDS011;8742;51.716;8.790;2023-04-19T14:52:43;7.93;;;2.30;;
17251;SDS011;8742;51.716;8.790;2023-04-19T14:55:10;4.47;;;2.37;;
17251;SDS011;8742;51.716;8.790;2023-04-19T14:57:37;5.83;;;2.63;;
17251;SDS011;8742;51.716;8.790;2023-04-19T15:00:05;3.40;;;2.30;;
17251;SDS011;8742;51.716;8.790;2023-04-19T15:02:51;4.07;;;2.57;;
17251;SDS011;8742;51.716;8.790;2023-04-19T15:05:18;4.40;;;2.40;;
17251;SDS011;8742;51.716;8.790;2023-04-19T15:07:48;3.90;;;3.20;;
17251;SDS011;8742;51.716;8.790;2023-04-19T15:10:24;3.50;;;2.30;;
17251;SDS011;8742;51.716;8.790;2023-04-19T15:12:54;11.67;;;2.77;;
17251;SDS011;8742;51.716;8.790;2023-04-19T15:15:24;4.70;;;2.63;;
17251;SDS011;8742;51.716;8.790;2023-04-19T15:17:51;5.00;;;2.77;;